sensor_id;sensor_type;location;lat;lon;timestamp;pressure;altitude;pressure_sealevel;temperature
25514;BMP180;48128;54.242;10.280;2023-09-19T00:03:14;99720.00;;;16.10
25514;BMP180;48128;54.242;10.280;2023-09-19T00:06:19;99724.00;;;16.10
25514;BMP180;48128;54.242;10.280;2023-09-19T00:12:30;99721.00;;;16.10
25514;BMP180;48128;54.242;10.280;2023-09-19T00:15:31;99722.00;;;16.20
25514;BMP180;48128;54.242;10.280;2023-09-19T00:18:14;99716.00;;;16.20
25514;BMP180;48128;54.242;10.280;2023-09-19T00:23:57;99743.00;;;16.20
25514;BMP180;48128;54.242;10.280;2023-09-19T00:26:36;99738.00;;;16.20
25514;BMP180;48128;54.242;10.280;2023-09-19T00:29:05;99737.00;;;16.20
25514;BMP180;48128;54.242;10.280;2023-09-19T00:31:46;99746.00;;;16.20
25514;BMP180;48128;54.242;10.280;2023-09-19T00:34:19;99741.00;;;16.20
25514;BMP180;48128;54.242;10.280;2023-09-19T00:36:51;99743.00;;;16.20
25514;BMP180;48128;54.242;10.280;2023-09-19T00:39:39;99744.00;;;16.20
25514;BMP180;48128;54.242;10.280;2023-09-19T00:48:54;99737.00;;;16.20
25514;BMP180;48128;54.242;10.280;2023-09-19T00:54:00;99737.00;;;16.10
25514;BMP180;48128;54.242;10.280;2023-09-19T00:56:28;99741.00;;;16.20
25514;BMP180;48128;54.242;10.280;2023-09-19T00:58:56;99751.00;;;16.10
25514;BMP180;48128;54.242;10.280;2023-09-19T01:01:23;99745.00;;;16.10
25514;BMP180;48128;54.242;10.280;2023-09-19T01:03:56;99748.00;;;16.10
25514;BMP180;48128;54.242;10.280;2023-09-19T01:06:32;99750.00;;;16.10
25514;BMP180;48128;54.242;10.280;2023-09-19T01:08:59;99749.00;;;16.10
25514;BMP180;48128;54.242;10.280;2023-09-19T01:11:37;99744.00;;;16.10
25514;BMP180;48128;54.242;10.280;2023-09-19T01:14:20;99749.00;;;16.00
25514;BMP180;48128;54.242;10.280;2023-09-19T01:17:14;99754.00;;;16.00
25514;BMP180;48128;54.242;10.280;2023-09-19T01:22:56;99753.00;;;16.10
25514;BMP180;48128;54.242;10.280;2023-09-19T01:25:56;99763.00;;;16.10
25514;BMP180;48128;54.242;10.280;2023-09-19T01:29:12;99775.00;;;16.00
25514;BMP180;48128;54.242;10.280;2023-09-19T01:31:49;99762.00;;;16.10
25514;BMP180;48128;54.242;10.280;2023-09-19T01:34:21;99769.00;;;16.10
25514;BMP180;48128;54.242;10.280;2023-09-19T01:36:48;99772.00;;;16.10
25514;BMP180;48128;54.242;10.280;2023-09-19T01:39:15;99776.00;;;16.10
25514;BMP180;48128;54.242;10.280;2023-09-19T01:52:22;99777.00;;;16.10
25514;BMP180;48128;54.242;10.280;2023-09-19T01:55:06;99774.00;;;16.10
25514;BMP180;48128;54.242;10.280;2023-09-19T01:57:40;99774.00;;;16.10
25514;BMP180;48128;54.242;10.280;2023-09-19T02:00:16;99773.00;;;16.10
25514;BMP180;48128;54.242;10.280;2023-09-19T02:02:46;99775.00;;;16.00
25514;BMP180;48128;54.242;10.280;2023-09-19T02:05:23;99777.00;;;16.00
25514;BMP180;48128;54.242;10.280;2023-09-19T02:07:54;99779.00;;;16.00
25514;BMP180;48128;54.242;10.280;2023-09-19T02:10:21;99789.00;;;16.00
25514;BMP180;48128;54.242;10.280;2023-09-19T02:12:49;99785.00;;;16.00
25514;BMP180;48128;54.242;10.280;2023-09-19T02:15:28;99786.00;;;15.90
25514;BMP180;48128;54.242;10.280;2023-09-19T02:17:56;99789.00;;;15.90
25514;BMP180;48128;54.242;10.280;2023-09-19T02:20:23;99789.00;;;15.80
25514;BMP180;48128;54.242;10.280;2023-09-19T02:22:56;99791.00;;;15.80
25514;BMP180;48128;54.242;10.280;2023-09-19T02:25:28;99796.00;;;15.70
25514;BMP180;48128;54.242;10.280;2023-09-19T02:27:55;99786.00;;;15.70
25514;BMP180;48128;54.242;10.280;2023-09-19T02:30:28;99789.00;;;15.70
25514;BMP180;48128;54.242;10.280;2023-09-19T02:32:59;99792.00;;;15.70
25514;BMP180;48128;54.242;10.280;2023-09-19T02:35:33;99795.00;;;15.60
25514;BMP180;48128;54.242;10.280;2023-09-19T02:38:03;99799.00;;;15.60
25514;BMP180;48128;54.242;10.280;2023-09-19T02:40:33;99800.00;;;15.60
25514;BMP180;48128;54.242;10.280;2023-09-19T02:43:03;99796.00;;;15.60
25514;BMP180;48128;54.242;10.280;2023-09-19T02:45:32;99810.00;;;15.60
25514;BMP180;48128;54.242;10.280;2023-09-19T02:47:59;99799.00;;;15.50
25514;BMP180;48128;54.242;10.280;2023-09-19T02:50:26;99782.00;;;15.50
25514;BMP180;48128;54.242;10.280;2023-09-19T02:52:53;99796.00;;;15.40
25514;BMP180;48128;54.242;10.280;2023-09-19T02:55:20;99794.00;;;15.40
25514;BMP180;48128;54.242;10.280;2023-09-19T02:57:50;99804.00;;;15.40
25514;BMP180;48128;54.242;10.280;2023-09-19T03:00:18;99799.00;;;15.30
25514;BMP180;48128;54.242;10.280;2023-09-19T03:02:55;99797.00;;;15.30
25514;BMP180;48128;54.242;10.280;2023-09-19T03:05:23;99790.00;;;15.30
25514;BMP180;48128;54.242;10.280;2023-09-19T03:07:56;99808.00;;;15.30
25514;BMP180;48128;54.242;10.280;2023-09-19T03:10:26;99812.00;;;15.40
25514;BMP180;48128;54.242;10.280;2023-09-19T03:12:53;99826.00;;;15.40
25514;BMP180;48128;54.242;10.280;2023-09-19T03:15:20;99823.00;;;15.40
25514;BMP180;48128;54.242;10.280;2023-09-19T03:17:48;99826.00;;;15.40
25514;BMP180;48128;54.242;10.280;2023-09-19T03:20:19;99822.00;;;15.40
25514;BMP180;48128;54.242;10.280;2023-09-19T03:22:48;99824.00;;;15.40
25514;BMP180;48128;54.242;10.280;2023-09-19T03:25:16;99841.00;;;15.40
25514;BMP180;48128;54.242;10.280;2023-09-19T03:27:44;99843.00;;;15.40
25514;BMP180;48128;54.242;10.280;2023-09-19T03:30:15;99833.00;;;15.50
25514;BMP180;48128;54.242;10.280;2023-09-19T03:32:46;99842.00;;;15.50
25514;BMP180;48128;54.242;10.280;2023-09-19T03:35:13;99840.00;;;15.50
25514;BMP180;48128;54.242;10.280;2023-09-19T03:37:41;99856.00;;;15.50
25514;BMP180;48128;54.242;10.280;2023-09-19T03:40:10;99855.00;;;15.50
25514;BMP180;48128;54.242;10.280;2023-09-19T03:42:41;99849.00;;;15.50
25514;BMP180;48128;54.242;10.280;2023-09-19T03:45:09;99844.00;;;15.40
25514;BMP180;48128;54.242;10.280;2023-09-19T03:47:45;99853.00;;;15.40
25514;BMP180;48128;54.242;10.280;2023-09-19T03:50:17;99859.00;;;15.30
25514;BMP180;48128;54.242;10.280;2023-09-19T03:52:45;99852.00;;;15.30
25514;BMP180;48128;54.242;10.280;2023-09-19T03:55:12;99859.00;;;15.20
25514;BMP180;48128;54.242;10.280;2023-09-19T03:57:40;99862.00;;;15.20
25514;BMP180;48128;54.242;10.280;2023-09-19T04:00:09;99869.00;;;15.10
25514;BMP180;48128;54.242;10.280;2023-09-19T04:02:41;99864.00;;;15.10
25514;BMP180;48128;54.242;10.280;2023-09-19T04:05:08;99867.00;;;15.10
25514;BMP180;48128;54.242;10.280;2023-09-19T04:07:36;99871.00;;;15.00
25514;BMP180;48128;54.242;10.280;2023-09-19T04:10:03;99872.00;;;15.00
25514;BMP180;48128;54.242;10.280;2023-09-19T04:12:35;99876.00;;;15.00
25514;BMP180;48128;54.242;10.280;2023-09-19T04:15:02;99870.00;;;14.90
25514;BMP180;48128;54.242;10.280;2023-09-19T04:17:30;99883.00;;;14.90
25514;BMP180;48128;54.242;10.280;2023-09-19T04:20:01;99877.00;;;14.80
25514;BMP180;48128;54.242;10.280;2023-09-19T04:22:28;99881.00;;;14.80
25514;BMP180;48128;54.242;10.280;2023-09-19T04:24:54;99884.00;;;14.80
25514;BMP180;48128;54.242;10.280;2023-09-19T04:27:22;99881.00;;;14.70
25514;BMP180;48128;54.242;10.280;2023-09-19T04:29:49;99884.00;;;14.70
25514;BMP180;48128;54.242;10.280;2023-09-19T04:32:19;99879.00;;;14.60
25514;BMP180;48128;54.242;10.280;2023-09-19T04:34:46;99886.00;;;14.60
25514;BMP180;48128;54.242;10.280;2023-09-19T04:37:17;99898.00;;;14.50
25514;BMP180;48128;54.242;10.280;2023-09-19T04:39:44;99906.00;;;14.50
25514;BMP180;48128;54.242;10.280;2023-09-19T04:42:13;99909.00;;;14.50
25514;BMP180;48128;54.242;10.280;2023-09-19T04:44:41;99916.00;;;14.50
25514;BMP180;48128;54.242;10.280;2023-09-19T04:47:08;99916.00;;;14.50
25514;BMP180;48128;54.242;10.280;2023-09-19T04:49:35;99907.00;;;14.40
25514;BMP180;48128;54.242;10.280;2023-09-19T04:52:02;99908.00;;;14.40
25514;BMP180;48128;54.242;10.280;2023-09-19T04:54:29;99911.00;;;14.30
25514;BMP180;48128;54.242;10.280;2023-09-19T04:56:59;99923.00;;;14.30
25514;BMP180;48128;54.242;10.280;2023-09-19T04:59:27;99921.00;;;14.30
25514;BMP180;48128;54.242;10.280;2023-09-19T05:01:56;99924.00;;;14.30
25514;BMP180;48128;54.242;10.280;2023-09-19T05:04:24;99930.00;;;14.30
25514;BMP180;48128;54.242;10.280;2023-09-19T05:06:51;99927.00;;;14.30
25514;BMP180;48128;54.242;10.280;2023-09-19T05:09:18;99928.00;;;14.20
25514;BMP180;48128;54.242;10.280;2023-09-19T05:11:49;99921.00;;;14.20
25514;BMP180;48128;54.242;10.280;2023-09-19T05:14:18;99914.00;;;14.20
25514;BMP180;48128;54.242;10.280;2023-09-19T05:16:46;99946.00;;;14.20
25514;BMP180;48128;54.242;10.280;2023-09-19T05:19:19;99955.00;;;14.20
25514;BMP180;48128;54.242;10.280;2023-09-19T05:21:51;99950.00;;;14.20
25514;BMP180;48128;54.242;10.280;2023-09-19T05:24:21;99961.00;;;14.20
25514;BMP180;48128;54.242;10.280;2023-09-19T05:26:53;99959.00;;;14.20
25514;BMP180;48128;54.242;10.280;2023-09-19T05:29:22;99971.00;;;14.20
25514;BMP180;48128;54.242;10.280;2023-09-19T05:31:50;99961.00;;;14.20
25514;BMP180;48128;54.242;10.280;2023-09-19T05:34:19;99965.00;;;14.20
25514;BMP180;48128;54.242;10.280;2023-09-19T05:36:46;99970.00;;;14.20
25514;BMP180;48128;54.242;10.280;2023-09-19T05:39:15;99972.00;;;14.20
25514;BMP180;48128;54.242;10.280;2023-09-19T05:41:45;99974.00;;;14.20
25514;BMP180;48128;54.242;10.280;2023-09-19T05:44:15;99969.00;;;14.20
25514;BMP180;48128;54.242;10.280;2023-09-19T05:46:42;99976.00;;;14.30
25514;BMP180;48128;54.242;10.280;2023-09-19T05:49:10;99973.00;;;14.20
25514;BMP180;48128;54.242;10.280;2023-09-19T05:51:37;99980.00;;;14.20
25514;BMP180;48128;54.242;10.280;2023-09-19T05:54:05;99983.00;;;14.20
25514;BMP180;48128;54.242;10.280;2023-09-19T05:56:32;99992.00;;;14.20
25514;BMP180;48128;54.242;10.280;2023-09-19T05:59:16;99995.00;;;14.10
25514;BMP180;48128;54.242;10.280;2023-09-19T06:01:43;99987.00;;;14.10
25514;BMP180;48128;54.242;10.280;2023-09-19T06:04:10;99983.00;;;14.10
25514;BMP180;48128;54.242;10.280;2023-09-19T06:06:43;99983.00;;;14.10
25514;BMP180;48128;54.242;10.280;2023-09-19T06:09:14;99992.00;;;14.20
25514;BMP180;48128;54.242;10.280;2023-09-19T06:11:42;99972.00;;;14.30
25514;BMP180;48128;54.242;10.280;2023-09-19T06:14:12;99983.00;;;14.30
25514;BMP180;48128;54.242;10.280;2023-09-19T06:16:44;99999.00;;;14.20
25514;BMP180;48128;54.242;10.280;2023-09-19T06:19:12;99989.00;;;14.30
25514;BMP180;48128;54.242;10.280;2023-09-19T06:21:39;99992.00;;;14.30
25514;BMP180;48128;54.242;10.280;2023-09-19T06:24:06;99997.00;;;14.30
25514;BMP180;48128;54.242;10.280;2023-09-19T06:26:37;100003.00;;;14.30
25514;BMP180;48128;54.242;10.280;2023-09-19T06:29:04;100009.00;;;14.30
25514;BMP180;48128;54.242;10.280;2023-09-19T06:31:38;100002.00;;;14.30
25514;BMP180;48128;54.242;10.280;2023-09-19T06:34:06;100015.00;;;14.30
25514;BMP180;48128;54.242;10.280;2023-09-19T06:36:33;100016.00;;;14.40
25514;BMP180;48128;54.242;10.280;2023-09-19T06:39:00;100025.00;;;14.40
25514;BMP180;48128;54.242;10.280;2023-09-19T06:41:28;100013.00;;;14.40
25514;BMP180;48128;54.242;10.280;2023-09-19T06:43:56;100026.00;;;14.50
25514;BMP180;48128;54.242;10.280;2023-09-19T06:46:24;100007.00;;;14.50
25514;BMP180;48128;54.242;10.280;2023-09-19T06:48:52;100016.00;;;14.50
25514;BMP180;48128;54.242;10.280;2023-09-19T06:51:19;100022.00;;;14.50
25514;BMP180;48128;54.242;10.280;2023-09-19T06:53:46;100034.00;;;14.50
25514;BMP180;48128;54.242;10.280;2023-09-19T06:56:16;100035.00;;;14.60
25514;BMP180;48128;54.242;10.280;2023-09-19T06:58:44;100039.00;;;14.60
25514;BMP180;48128;54.242;10.280;2023-09-19T07:01:21;100038.00;;;14.60
25514;BMP180;48128;54.242;10.280;2023-09-19T07:03:51;100047.00;;;14.70
25514;BMP180;48128;54.242;10.280;2023-09-19T07:06:20;100056.00;;;14.70
25514;BMP180;48128;54.242;10.280;2023-09-19T07:08:47;100050.00;;;14.80
25514;BMP180;48128;54.242;10.280;2023-09-19T07:11:15;100057.00;;;14.80
25514;BMP180;48128;54.242;10.280;2023-09-19T07:13:42;100059.00;;;14.90
25514;BMP180;48128;54.242;10.280;2023-09-19T07:16:10;100052.00;;;15.00
25514;BMP180;48128;54.242;10.280;2023-09-19T07:18:46;100078.00;;;15.00
25514;BMP180;48128;54.242;10.280;2023-09-19T07:21:16;100065.00;;;15.00
25514;BMP180;48128;54.242;10.280;2023-09-19T07:23:44;100063.00;;;15.00
25514;BMP180;48128;54.242;10.280;2023-09-19T07:26:22;100066.00;;;15.00
25514;BMP180;48128;54.242;10.280;2023-09-19T07:28:49;100074.00;;;15.00
25514;BMP180;48128;54.242;10.280;2023-09-19T07:31:16;100061.00;;;15.10
25514;BMP180;48128;54.242;10.280;2023-09-19T07:33:43;100059.00;;;15.20
25514;BMP180;48128;54.242;10.280;2023-09-19T07:36:11;100070.00;;;15.20
25514;BMP180;48128;54.242;10.280;2023-09-19T07:38:41;100077.00;;;15.20
25514;BMP180;48128;54.242;10.280;2023-09-19T07:41:10;100079.00;;;15.20
25514;BMP180;48128;54.242;10.280;2023-09-19T07:43:37;100085.00;;;15.20
25514;BMP180;48128;54.242;10.280;2023-09-19T07:46:13;100086.00;;;15.30
25514;BMP180;48128;54.242;10.280;2023-09-19T07:48:40;100090.00;;;15.30
25514;BMP180;48128;54.242;10.280;2023-09-19T07:51:10;100090.00;;;15.30
25514;BMP180;48128;54.242;10.280;2023-09-19T07:53:37;100080.00;;;15.30
25514;BMP180;48128;54.242;10.280;2023-09-19T07:56:05;100083.00;;;15.30
25514;BMP180;48128;54.242;10.280;2023-09-19T07:58:34;100098.00;;;15.30
25514;BMP180;48128;54.242;10.280;2023-09-19T08:01:07;100100.00;;;15.30
25514;BMP180;48128;54.242;10.280;2023-09-19T08:03:38;100094.00;;;15.40
25514;BMP180;48128;54.242;10.280;2023-09-19T08:06:14;100099.00;;;15.40
25514;BMP180;48128;54.242;10.280;2023-09-19T08:08:41;100108.00;;;15.40
25514;BMP180;48128;54.242;10.280;2023-09-19T08:11:11;100086.00;;;15.40
25514;BMP180;48128;54.242;10.280;2023-09-19T08:13:40;100102.00;;;15.40
25514;BMP180;48128;54.242;10.280;2023-09-19T08:16:13;100101.00;;;15.40
25514;BMP180;48128;54.242;10.280;2023-09-19T08:18:51;100088.00;;;15.50
25514;BMP180;48128;54.242;10.280;2023-09-19T08:21:26;100100.00;;;15.60
25514;BMP180;48128;54.242;10.280;2023-09-19T08:23:56;100083.00;;;15.60
25514;BMP180;48128;54.242;10.280;2023-09-19T08:26:23;100102.00;;;15.60
25514;BMP180;48128;54.242;10.280;2023-09-19T08:28:51;100093.00;;;15.70
25514;BMP180;48128;54.242;10.280;2023-09-19T08:31:31;100094.00;;;15.70
25514;BMP180;48128;54.242;10.280;2023-09-19T08:34:01;100079.00;;;15.80
25514;BMP180;48128;54.242;10.280;2023-09-19T08:36:31;100094.00;;;15.70
25514;BMP180;48128;54.242;10.280;2023-09-19T08:38:58;100101.00;;;15.70
25514;BMP180;48128;54.242;10.280;2023-09-19T08:41:25;100092.00;;;15.60
25514;BMP180;48128;54.242;10.280;2023-09-19T08:43:59;100068.00;;;15.60
25514;BMP180;48128;54.242;10.280;2023-09-19T08:46:30;100085.00;;;15.60
25514;BMP180;48128;54.242;10.280;2023-09-19T08:49:07;100084.00;;;15.60
25514;BMP180;48128;54.242;10.280;2023-09-19T08:51:43;100075.00;;;15.60
25514;BMP180;48128;54.242;10.280;2023-09-19T08:54:21;100085.00;;;15.60
25514;BMP180;48128;54.242;10.280;2023-09-19T08:56:50;100074.00;;;15.60
25514;BMP180;48128;54.242;10.280;2023-09-19T08:59:17;100079.00;;;15.80
25514;BMP180;48128;54.242;10.280;2023-09-19T09:01:57;100079.00;;;16.00
25514;BMP180;48128;54.242;10.280;2023-09-19T09:04:25;100093.00;;;16.10
25514;BMP180;48128;54.242;10.280;2023-09-19T09:06:57;100105.00;;;16.10
25514;BMP180;48128;54.242;10.280;2023-09-19T09:09:25;100101.00;;;16.00
25514;BMP180;48128;54.242;10.280;2023-09-19T09:11:54;100103.00;;;16.00
25514;BMP180;48128;54.242;10.280;2023-09-19T09:14:23;100085.00;;;16.00
25514;BMP180;48128;54.242;10.280;2023-09-19T09:16:51;100109.00;;;16.00
25514;BMP180;48128;54.242;10.280;2023-09-19T09:19:18;100107.00;;;16.10
25514;BMP180;48128;54.242;10.280;2023-09-19T09:21:51;100121.00;;;16.10
25514;BMP180;48128;54.242;10.280;2023-09-19T09:24:28;100124.00;;;16.10
25514;BMP180;48128;54.242;10.280;2023-09-19T09:26:57;100099.00;;;16.10
25514;BMP180;48128;54.242;10.280;2023-09-19T09:29:44;100136.00;;;16.10
25514;BMP180;48128;54.242;10.280;2023-09-19T09:32:20;100131.00;;;16.20
25514;BMP180;48128;54.242;10.280;2023-09-19T09:34:50;100135.00;;;16.20
25514;BMP180;48128;54.242;10.280;2023-09-19T09:37:24;100161.00;;;16.20
25514;BMP180;48128;54.242;10.280;2023-09-19T09:40:03;100147.00;;;16.30
25514;BMP180;48128;54.242;10.280;2023-09-19T09:42:46;100148.00;;;16.40
25514;BMP180;48128;54.242;10.280;2023-09-19T09:47:56;100142.00;;;16.70
25514;BMP180;48128;54.242;10.280;2023-09-19T09:50:50;100162.00;;;16.80
25514;BMP180;48128;54.242;10.280;2023-09-19T09:53:33;100148.00;;;16.80
25514;BMP180;48128;54.242;10.280;2023-09-19T09:56:02;100156.00;;;16.90
25514;BMP180;48128;54.242;10.280;2023-09-19T09:58:33;100146.00;;;17.00
25514;BMP180;48128;54.242;10.280;2023-09-19T10:01:04;100147.00;;;17.00
25514;BMP180;48128;54.242;10.280;2023-09-19T10:03:42;100151.00;;;17.00
25514;BMP180;48128;54.242;10.280;2023-09-19T10:06:20;100152.00;;;17.00
25514;BMP180;48128;54.242;10.280;2023-09-19T10:08:58;100150.00;;;17.20
25514;BMP180;48128;54.242;10.280;2023-09-19T10:11:45;100159.00;;;17.30
25514;BMP180;48128;54.242;10.280;2023-09-19T10:14:15;100157.00;;;17.40
25514;BMP180;48128;54.242;10.280;2023-09-19T10:16:47;100147.00;;;17.60
25514;BMP180;48128;54.242;10.280;2023-09-19T10:22:06;100163.00;;;17.60
25514;BMP180;48128;54.242;10.280;2023-09-19T10:24:36;100153.00;;;17.70
25514;BMP180;48128;54.242;10.280;2023-09-19T10:27:22;100161.00;;;17.90
25514;BMP180;48128;54.242;10.280;2023-09-19T10:29:53;100159.00;;;18.00
25514;BMP180;48128;54.242;10.280;2023-09-19T10:32:26;100172.00;;;18.00
25514;BMP180;48128;54.242;10.280;2023-09-19T10:34:58;100174.00;;;18.10
25514;BMP180;48128;54.242;10.280;2023-09-19T10:37:25;100178.00;;;18.10
25514;BMP180;48128;54.242;10.280;2023-09-19T10:39:54;100173.00;;;18.10
25514;BMP180;48128;54.242;10.280;2023-09-19T10:42:23;100172.00;;;18.20
25514;BMP180;48128;54.242;10.280;2023-09-19T10:44:54;100181.00;;;18.10
25514;BMP180;48128;54.242;10.280;2023-09-19T10:47:27;100161.00;;;17.90
25514;BMP180;48128;54.242;10.280;2023-09-19T10:49:54;100150.00;;;17.80
25514;BMP180;48128;54.242;10.280;2023-09-19T10:52:24;100181.00;;;17.90
25514;BMP180;48128;54.242;10.280;2023-09-19T10:54:52;100169.00;;;18.00
25514;BMP180;48128;54.242;10.280;2023-09-19T10:57:23;100170.00;;;18.00
25514;BMP180;48128;54.242;10.280;2023-09-19T11:05:44;100176.00;;;18.30
25514;BMP180;48128;54.242;10.280;2023-09-19T11:08:26;100187.00;;;18.40
25514;BMP180;48128;54.242;10.280;2023-09-19T11:10:54;100178.00;;;18.60
25514;BMP180;48128;54.242;10.280;2023-09-19T11:13:25;100209.00;;;18.50
25514;BMP180;48128;54.242;10.280;2023-09-19T11:26:51;100184.00;;;18.50
25514;BMP180;48128;54.242;10.280;2023-09-19T11:29:37;100177.00;;;18.50
25514;BMP180;48128;54.242;10.280;2023-09-19T11:32:04;100192.00;;;18.50
25514;BMP180;48128;54.242;10.280;2023-09-19T11:42:48;100194.00;;;18.60
25514;BMP180;48128;54.242;10.280;2023-09-19T11:48:18;100199.00;;;18.70
25514;BMP180;48128;54.242;10.280;2023-09-19T11:50:45;100188.00;;;18.70
25514;BMP180;48128;54.242;10.280;2023-09-19T11:53:24;100184.00;;;18.80
25514;BMP180;48128;54.242;10.280;2023-09-19T11:55:58;100197.00;;;18.80
25514;BMP180;48128;54.242;10.280;2023-09-19T11:58:27;100171.00;;;18.90
25514;BMP180;48128;54.242;10.280;2023-09-19T12:01:00;100189.00;;;18.90
25514;BMP180;48128;54.242;10.280;2023-09-19T12:03:29;100177.00;;;18.90
25514;BMP180;48128;54.242;10.280;2023-09-19T12:05:58;100185.00;;;18.80
25514;BMP180;48128;54.242;10.280;2023-09-19T12:08:25;100183.00;;;18.70
25514;BMP180;48128;54.242;10.280;2023-09-19T12:10:54;100182.00;;;18.70
25514;BMP180;48128;54.242;10.280;2023-09-19T12:13:22;100175.00;;;18.80
25514;BMP180;48128;54.242;10.280;2023-09-19T12:15:49;100170.00;;;18.80
25514;BMP180;48128;54.242;10.280;2023-09-19T12:18:29;100164.00;;;18.90
25514;BMP180;48128;54.242;10.280;2023-09-19T12:20:56;100172.00;;;18.80
25514;BMP180;48128;54.242;10.280;2023-09-19T12:23:27;100177.00;;;18.90
25514;BMP180;48128;54.242;10.280;2023-09-19T12:25:54;100173.00;;;18.90
25514;BMP180;48128;54.242;10.280;2023-09-19T12:28:26;100163.00;;;19.00
25514;BMP180;48128;54.242;10.280;2023-09-19T12:31:07;100154.00;;;19.20
25514;BMP180;48128;54.242;10.280;2023-09-19T12:33:35;100169.00;;;19.20
25514;BMP180;48128;54.242;10.280;2023-09-19T12:36:22;100178.00;;;19.30
25514;BMP180;48128;54.242;10.280;2023-09-19T12:38:58;100182.00;;;19.10
25514;BMP180;48128;54.242;10.280;2023-09-19T12:41:30;100175.00;;;18.90
25514;BMP180;48128;54.242;10.280;2023-09-19T12:43:57;100181.00;;;18.90
25514;BMP180;48128;54.242;10.280;2023-09-19T12:46:26;100194.00;;;18.80
25514;BMP180;48128;54.242;10.280;2023-09-19T12:49:15;100159.00;;;18.90
25514;BMP180;48128;54.242;10.280;2023-09-19T12:51:48;100191.00;;;18.80
25514;BMP180;48128;54.242;10.280;2023-09-19T12:54:16;100170.00;;;18.80
25514;BMP180;48128;54.242;10.280;2023-09-19T12:56:45;100187.00;;;18.80
25514;BMP180;48128;54.242;10.280;2023-09-19T12:59:15;100178.00;;;18.80
25514;BMP180;48128;54.242;10.280;2023-09-19T13:01:46;100167.00;;;18.80
25514;BMP180;48128;54.242;10.280;2023-09-19T13:04:31;100165.00;;;18.80
25514;BMP180;48128;54.242;10.280;2023-09-19T13:07:00;100159.00;;;18.80
25514;BMP180;48128;54.242;10.280;2023-09-19T13:09:28;100161.00;;;18.90
25514;BMP180;48128;54.242;10.280;2023-09-19T13:12:01;100160.00;;;18.90
25514;BMP180;48128;54.242;10.280;2023-09-19T13:14:33;100155.00;;;19.00
25514;BMP180;48128;54.242;10.280;2023-09-19T13:17:11;100148.00;;;19.10
25514;BMP180;48128;54.242;10.280;2023-09-19T13:19:47;100147.00;;;19.30
25514;BMP180;48128;54.242;10.280;2023-09-19T13:22:39;100158.00;;;19.20
25514;BMP180;48128;54.242;10.280;2023-09-19T13:25:08;100141.00;;;19.30
25514;BMP180;48128;54.242;10.280;2023-09-19T13:27:45;100141.00;;;19.40
25514;BMP180;48128;54.242;10.280;2023-09-19T13:30:12;100156.00;;;19.40
25514;BMP180;48128;54.242;10.280;2023-09-19T13:32:40;100149.00;;;19.50
25514;BMP180;48128;54.242;10.280;2023-09-19T13:35:09;100146.00;;;19.50
25514;BMP180;48128;54.242;10.280;2023-09-19T13:37:39;100150.00;;;19.50
25514;BMP180;48128;54.242;10.280;2023-09-19T13:40:10;100147.00;;;19.60
25514;BMP180;48128;54.242;10.280;2023-09-19T13:42:40;100132.00;;;19.70
25514;BMP180;48128;54.242;10.280;2023-09-19T13:45:08;100141.00;;;19.60
25514;BMP180;48128;54.242;10.280;2023-09-19T13:47:39;100145.00;;;19.50
25514;BMP180;48128;54.242;10.280;2023-09-19T13:50:07;100129.00;;;19.40
25514;BMP180;48128;54.242;10.280;2023-09-19T13:52:34;100127.00;;;19.50
25514;BMP180;48128;54.242;10.280;2023-09-19T13:55:01;100138.00;;;19.50
25514;BMP180;48128;54.242;10.280;2023-09-19T13:57:28;100122.00;;;19.40
25514;BMP180;48128;54.242;10.280;2023-09-19T13:59:56;100125.00;;;19.20
25514;BMP180;48128;54.242;10.280;2023-09-19T14:02:23;100113.00;;;19.10
25514;BMP180;48128;54.242;10.280;2023-09-19T14:04:54;100101.00;;;19.20
25514;BMP180;48128;54.242;10.280;2023-09-19T14:07:22;100090.00;;;19.30
25514;BMP180;48128;54.242;10.280;2023-09-19T14:09:49;100105.00;;;19.30
25514;BMP180;48128;54.242;10.280;2023-09-19T14:12:16;100094.00;;;19.20
25514;BMP180;48128;54.242;10.280;2023-09-19T14:14:45;100088.00;;;19.10
25514;BMP180;48128;54.242;10.280;2023-09-19T14:17:12;100088.00;;;19.00
25514;BMP180;48128;54.242;10.280;2023-09-19T14:19:41;100098.00;;;18.90
25514;BMP180;48128;54.242;10.280;2023-09-19T14:22:12;100075.00;;;18.80
25514;BMP180;48128;54.242;10.280;2023-09-19T14:24:40;100055.00;;;18.70
25514;BMP180;48128;54.242;10.280;2023-09-19T14:27:08;100059.00;;;18.70
25514;BMP180;48128;54.242;10.280;2023-09-19T14:29:39;100050.00;;;18.70
25514;BMP180;48128;54.242;10.280;2023-09-19T14:32:17;100059.00;;;18.70
25514;BMP180;48128;54.242;10.280;2023-09-19T14:34:47;100040.00;;;18.70
25514;BMP180;48128;54.242;10.280;2023-09-19T14:37:15;100027.00;;;18.60
25514;BMP180;48128;54.242;10.280;2023-09-19T14:39:43;100035.00;;;18.50
25514;BMP180;48128;54.242;10.280;2023-09-19T14:42:11;100043.00;;;18.40
25514;BMP180;48128;54.242;10.280;2023-09-19T14:44:39;100034.00;;;18.40
25514;BMP180;48128;54.242;10.280;2023-09-19T14:47:07;100040.00;;;18.40
25514;BMP180;48128;54.242;10.280;2023-09-19T14:49:34;100020.00;;;18.30
25514;BMP180;48128;54.242;10.280;2023-09-19T14:52:01;100048.00;;;18.30
25514;BMP180;48128;54.242;10.280;2023-09-19T14:54:31;100033.00;;;18.20
25514;BMP180;48128;54.242;10.280;2023-09-19T14:57:01;100041.00;;;18.10
25514;BMP180;48128;54.242;10.280;2023-09-19T14:59:31;100044.00;;;18.00
25514;BMP180;48128;54.242;10.280;2023-09-19T15:01:58;100042.00;;;18.00
25514;BMP180;48128;54.242;10.280;2023-09-19T15:04:27;100047.00;;;17.90
25514;BMP180;48128;54.242;10.280;2023-09-19T15:06:54;100007.00;;;17.80
25514;BMP180;48128;54.242;10.280;2023-09-19T15:09:23;100017.00;;;17.80
25514;BMP180;48128;54.242;10.280;2023-09-19T15:11:56;100018.00;;;17.80
25514;BMP180;48128;54.242;10.280;2023-09-19T15:14:23;100014.00;;;17.80
25514;BMP180;48128;54.242;10.280;2023-09-19T15:16:54;100028.00;;;17.70